createdAt,value
2023-03-05T00:01:22.675Z,99.90
2023-03-05T00:03:52.225Z,99.90
2023-03-05T00:06:22.526Z,99.90
2023-03-05T00:08:51.534Z,99.90
2023-03-05T00:11:19.286Z,99.90
2023-03-05T00:13:47.423Z,99.90
2023-03-05T00:16:16.900Z,99.90
2023-03-05T00:18:46.309Z,99.90
2023-03-05T00:21:22.531Z,99.90
2023-03-05T00:23:51.629Z,99.90
2023-03-05T00:26:19.667Z,99.90
2023-03-05T00:28:50.195Z,99.90
2023-03-05T00:31:18.265Z,99.90
2023-03-05T00:33:46.232Z,99.90
2023-03-05T00:36:14.116Z,99.90
2023-03-05T00:38:43.325Z,99.90
2023-03-05T00:41:11.161Z,99.90
2023-03-05T00:43:39.028Z,99.90
2023-03-05T00:46:06.895Z,99.90
2023-03-05T00:48:34.738Z,99.90
2023-03-05T00:51:02.631Z,99.90
2023-03-05T00:53:30.600Z,99.90
2023-03-05T00:56:00.095Z,99.90
2023-03-05T00:58:28.108Z,99.90
2023-03-05T01:00:59.147Z,99.90
2023-03-05T01:03:27.315Z,99.90
2023-03-05T01:05:56.822Z,99.90
2023-03-05T01:08:24.845Z,99.90
2023-03-05T01:10:53.328Z,99.90
2023-03-05T01:13:22.553Z,99.90
2023-03-05T01:15:51.110Z,99.90
2023-03-05T01:18:19.929Z,99.90
2023-03-05T01:20:47.916Z,99.90
2023-03-05T01:23:15.793Z,99.90
2023-03-05T01:25:44.343Z,99.90
2023-03-05T01:28:12.202Z,99.90
2023-03-05T01:30:41.325Z,99.90
2023-03-05T01:33:09.093Z,99.90
2023-03-05T01:35:36.984Z,99.90
2023-03-05T01:38:04.817Z,99.90
2023-03-05T01:40:33.173Z,99.90
2023-03-05T01:43:07.660Z,99.90
2023-03-05T01:45:36.524Z,99.90
2023-03-05T01:48:06.281Z,99.90
2023-03-05T01:50:34.448Z,99.90
2023-03-05T01:53:04.953Z,99.90
2023-03-05T01:55:37.188Z,99.90
2023-03-05T01:58:09.807Z,99.90
2023-03-05T02:00:44.344Z,99.90
2023-03-05T02:03:14.622Z,99.90
2023-03-05T02:05:44.429Z,99.90
2023-03-05T02:08:14.669Z,99.90
2023-03-05T02:10:45.459Z,99.90
2023-03-05T02:13:16.086Z,99.90
2023-03-05T02:15:44.089Z,99.90
2023-03-05T02:18:13.454Z,99.90
2023-03-05T02:20:47.463Z,99.90
2023-03-05T02:23:18.703Z,99.90
2023-03-05T02:25:46.879Z,99.90
2023-03-05T02:28:18.975Z,99.90
2023-03-05T02:30:47.359Z,99.90
2023-03-05T02:33:15.910Z,99.80
2023-03-05T02:35:44.376Z,99.10
2023-03-05T02:38:12.282Z,98.30
2023-03-05T02:40:41.824Z,97.60
2023-03-05T02:43:10.976Z,98.00
2023-03-05T02:45:39.653Z,98.30
2023-03-05T02:48:08.195Z,98.50
2023-03-05T02:50:36.591Z,98.60
2023-03-05T02:53:04.471Z,99.00
2023-03-05T02:55:32.530Z,99.40
2023-03-05T02:58:02.653Z,99.90
2023-03-05T03:00:30.614Z,99.90
2023-03-05T03:02:58.536Z,99.90
2023-03-05T03:05:26.440Z,99.90
2023-03-05T03:07:54.246Z,99.90
2023-03-05T03:10:22.167Z,99.90
2023-03-05T03:12:50.028Z,99.90
2023-03-05T03:15:19.593Z,99.90
2023-03-05T03:17:47.580Z,99.90
2023-03-05T03:20:17.904Z,99.90
2023-03-05T03:22:46.877Z,99.90
2023-03-05T03:25:16.684Z,99.90
2023-03-05T03:27:44.465Z,99.90
2023-03-05T03:30:13.863Z,99.90
2023-03-05T03:32:43.443Z,99.90
2023-03-05T03:35:12.268Z,99.90
2023-03-05T03:37:40.399Z,99.90
2023-03-05T03:40:09.265Z,99.90
2023-03-05T03:42:37.456Z,99.90
2023-03-05T03:45:06.273Z,99.90
2023-03-05T03:47:34.223Z,99.90
2023-03-05T03:50:03.684Z,99.90
2023-03-05T03:52:32.009Z,99.90
2023-03-05T03:55:01.702Z,99.90
2023-03-05T03:57:30.406Z,99.90
2023-03-05T03:59:58.218Z,99.90
2023-03-05T04:02:26.692Z,99.90
2023-03-05T04:04:54.924Z,99.90
2023-03-05T04:07:24.064Z,99.90
2023-03-05T04:09:52.027Z,99.90
2023-03-05T04:12:19.842Z,99.90
2023-03-05T04:14:47.664Z,99.90
2023-03-05T04:17:16.583Z,99.90
2023-03-05T04:19:44.765Z,99.90
2023-03-05T04:22:14.092Z,99.90
2023-03-05T04:24:43.668Z,99.90
2023-03-05T04:27:12.270Z,99.90
2023-03-05T04:29:40.172Z,99.90
2023-03-05T04:32:08.935Z,99.90
2023-03-05T04:34:38.984Z,99.90
2023-03-05T04:37:07.218Z,99.90
2023-03-05T04:39:35.297Z,99.90
2023-03-05T04:42:04.561Z,99.90
2023-03-05T04:44:32.480Z,99.90
2023-03-05T04:47:00.251Z,99.90
2023-03-05T04:49:28.160Z,99.90
2023-03-05T04:51:57.595Z,99.90
2023-03-05T04:54:25.648Z,99.90
2023-03-05T04:56:53.468Z,99.90
2023-03-05T04:59:22.697Z,99.90
2023-03-05T05:01:50.568Z,99.90
2023-03-05T05:04:18.560Z,99.90
2023-03-05T05:06:46.393Z,99.90
2023-03-05T05:09:14.295Z,99.90
2023-03-05T05:11:43.136Z,99.90
2023-03-05T05:14:11.019Z,99.90
2023-03-05T05:16:40.216Z,99.90
2023-03-05T05:19:08.467Z,99.90
2023-03-05T05:21:36.469Z,99.90
2023-03-05T05:24:04.643Z,99.90
2023-03-05T05:26:32.484Z,99.90
2023-03-05T05:29:00.330Z,99.90
2023-03-05T05:31:28.423Z,99.90
2023-03-05T05:33:57.622Z,99.90
2023-03-05T05:36:25.679Z,99.90
2023-03-05T05:38:53.557Z,99.90
2023-03-05T05:41:21.971Z,99.90
2023-03-05T05:43:50.142Z,99.90
2023-03-05T05:46:20.389Z,99.90
2023-03-05T05:48:48.803Z,99.90
2023-03-05T05:51:20.308Z,99.90
2023-03-05T05:53:48.561Z,99.90
2023-03-05T05:56:17.700Z,99.90
2023-03-05T05:58:47.609Z,99.90
2023-03-05T06:01:17.532Z,99.90
2023-03-05T06:03:45.867Z,99.90
2023-03-05T06:06:17.948Z,99.90
2023-03-05T06:08:46.220Z,99.90
2023-03-05T06:11:14.427Z,99.90
2023-03-05T06:13:42.482Z,99.90
2023-03-05T06:16:13.241Z,99.90
2023-03-05T06:18:41.530Z,99.90
2023-03-05T06:21:12.307Z,99.90
2023-03-05T06:23:42.431Z,99.90
2023-03-05T06:26:13.177Z,99.90
2023-03-05T06:28:41.592Z,99.90
2023-03-05T06:31:11.492Z,99.60
2023-03-05T06:33:40.606Z,98.60
2023-03-05T06:36:10.819Z,98.10
2023-03-05T06:38:39.253Z,97.40
2023-03-05T06:41:11.577Z,97.00
2023-03-05T06:43:40.950Z,96.00
2023-03-05T06:46:11.987Z,95.80
2023-03-05T06:48:40.043Z,95.20
2023-03-05T06:51:14.157Z,95.30
2023-03-05T06:53:42.166Z,93.80
2023-03-05T06:56:13.874Z,93.80
2023-03-05T06:58:41.856Z,93.80
2023-03-05T07:01:09.838Z,93.40
2023-03-05T07:03:38.200Z,93.60
2023-03-05T07:06:07.397Z,93.80
2023-03-05T07:08:35.277Z,94.30
2023-03-05T07:11:03.319Z,94.30
2023-03-05T07:13:33.043Z,94.60
2023-03-05T07:16:00.885Z,94.30
2023-03-05T07:18:28.680Z,94.50
2023-03-05T07:20:56.448Z,93.80
2023-03-05T07:23:24.228Z,94.00
2023-03-05T07:25:51.997Z,94.10
2023-03-05T07:28:19.753Z,94.50
2023-03-05T07:30:57.447Z,95.30
2023-03-05T07:33:25.633Z,95.80
2023-03-05T07:35:53.522Z,96.40
2023-03-05T07:38:21.382Z,96.70
2023-03-05T07:40:49.966Z,97.00
2023-03-05T07:43:18.186Z,97.60
2023-03-05T07:45:48.723Z,98.10
2023-03-05T07:48:20.832Z,98.60
2023-03-05T07:50:49.724Z,98.70
2023-03-05T07:53:18.085Z,99.20
2023-03-05T07:55:46.750Z,99.40
2023-03-05T07:58:15.370Z,99.10
2023-03-05T08:00:43.219Z,99.20
2023-03-05T08:03:12.338Z,99.80
2023-03-05T08:05:41.199Z,99.80
2023-03-05T08:08:09.557Z,98.90
2023-03-05T08:10:38.506Z,98.70
2023-03-05T08:13:06.945Z,99.00
2023-03-05T08:15:34.882Z,99.20
2023-03-05T08:18:02.680Z,99.20
2023-03-05T08:20:32.809Z,98.30
2023-03-05T08:23:01.575Z,97.50
2023-03-05T08:25:29.655Z,97.50
2023-03-05T08:27:57.613Z,97.60
2023-03-05T08:30:27.394Z,96.90
2023-03-05T08:32:57.377Z,95.70
2023-03-05T08:35:25.433Z,95.50
2023-03-05T08:37:54.662Z,95.20
2023-03-05T08:40:22.437Z,94.20
2023-03-05T08:42:51.908Z,92.90
2023-03-05T08:45:19.778Z,93.10
2023-03-05T08:47:47.555Z,92.80
2023-03-05T08:50:15.393Z,92.70
2023-03-05T08:52:43.194Z,92.50
2023-03-05T08:55:15.895Z,92.50
2023-03-05T08:57:43.750Z,92.60
2023-03-05T09:00:13.952Z,92.70
2023-03-05T09:02:41.836Z,93.00
2023-03-05T09:05:10.458Z,93.00
2023-03-05T09:07:38.754Z,93.40
2023-03-05T09:10:07.847Z,93.10
2023-03-05T09:12:37.741Z,93.60
2023-03-05T09:15:07.731Z,93.70
2023-03-05T09:17:35.990Z,93.30
2023-03-05T09:20:05.632Z,93.20
2023-03-05T09:22:33.739Z,93.20
2023-03-05T09:25:01.581Z,93.30
2023-03-05T09:27:29.506Z,93.00
2023-03-05T09:29:58.767Z,92.80
2023-03-05T09:32:26.813Z,92.10
2023-03-05T09:34:54.699Z,91.40
2023-03-05T09:37:22.581Z,91.00
2023-03-05T09:39:50.514Z,91.30
2023-03-05T09:42:46.526Z,92.20
2023-03-05T09:45:23.689Z,91.60
2023-03-05T09:47:57.155Z,91.80
2023-03-05T09:50:43.101Z,91.10
2023-03-05T09:53:22.368Z,91.40
2023-03-05T09:55:52.461Z,92.20
2023-03-05T09:58:29.367Z,91.80
2023-03-05T10:01:02.828Z,91.40
2023-03-05T10:03:37.087Z,91.70
2023-03-05T10:06:12.054Z,91.30
2023-03-05T10:08:49.829Z,91.50
2023-03-05T10:11:41.479Z,90.80
2023-03-05T10:14:15.836Z,91.10
2023-03-05T10:17:22.978Z,90.30
2023-03-05T10:20:23.553Z,90.60
2023-03-05T10:23:34.738Z,90.10
2023-03-05T10:26:14.581Z,88.60
2023-03-05T10:28:49.197Z,88.40
2023-03-05T10:31:38.328Z,87.70
2023-03-05T10:34:23.737Z,85.80
2023-03-05T10:37:05.647Z,82.50
2023-03-05T10:39:52.797Z,82.80
2023-03-05T10:42:31.661Z,83.70
2023-03-05T10:45:00.675Z,82.80
2023-03-05T10:47:31.421Z,80.70
2023-03-05T10:50:00.679Z,78.30
2023-03-05T10:52:34.285Z,78.30
2023-03-05T10:55:02.436Z,77.40
2023-03-05T10:57:32.808Z,75.70
2023-03-05T11:00:14.186Z,75.40
2023-03-05T11:02:55.946Z,75.70
2023-03-05T11:05:42.208Z,75.00
2023-03-05T11:08:27.912Z,74.60
2023-03-05T11:11:06.147Z,73.40
2023-03-05T11:13:34.902Z,72.70
2023-03-05T11:16:04.504Z,72.90
2023-03-05T11:18:34.646Z,73.30
2023-03-05T11:21:11.256Z,73.80
2023-03-05T11:23:39.323Z,72.10
2023-03-05T11:26:24.360Z,70.90
2023-03-05T11:28:59.253Z,71.70
2023-03-05T11:31:29.055Z,72.70
2023-03-05T11:34:02.454Z,73.80
2023-03-05T11:36:33.588Z,75.20
2023-03-05T11:39:11.587Z,76.00
2023-03-05T11:41:43.059Z,76.80
2023-03-05T11:44:14.582Z,75.90
2023-03-05T11:46:45.684Z,76.20
2023-03-05T11:49:18.892Z,77.20
2023-03-05T11:51:57.139Z,78.70
2023-03-05T11:54:31.758Z,79.30
2023-03-05T11:57:01.539Z,79.50
2023-03-05T11:59:32.803Z,80.00
2023-03-05T12:02:01.411Z,78.70
2023-03-05T12:04:30.438Z,78.20
2023-03-05T12:07:02.644Z,77.70
2023-03-05T12:09:40.952Z,77.40
2023-03-05T12:12:20.736Z,77.90
2023-03-05T12:14:52.574Z,77.60
2023-03-05T12:17:28.100Z,79.40
2023-03-05T12:20:00.616Z,80.60
2023-03-05T12:22:35.570Z,84.00
2023-03-05T12:25:29.018Z,85.80
2023-03-05T12:27:57.027Z,86.20
2023-03-05T12:30:57.321Z,86.60
2023-03-05T12:33:37.509Z,86.40
2023-03-05T12:36:34.725Z,85.60
2023-03-05T12:39:49.561Z,86.30
2023-03-05T12:42:55.757Z,87.30
2023-03-05T12:45:33.151Z,88.40
2023-03-05T12:48:50.029Z,90.00
2023-03-05T12:51:31.551Z,91.70
2023-03-05T12:54:18.254Z,92.80
2023-03-05T12:56:48.483Z,94.30
2023-03-05T12:59:20.635Z,96.50
2023-03-05T13:01:54.692Z,99.90
2023-03-05T13:04:26.550Z,99.90
2023-03-05T13:07:03.367Z,99.90
2023-03-05T13:09:34.949Z,99.90
2023-03-05T13:12:11.273Z,99.90
2023-03-05T13:14:42.500Z,99.90
2023-03-05T13:17:37.994Z,99.90
2023-03-05T13:20:27.002Z,99.90
2023-03-05T13:23:05.722Z,99.90
2023-03-05T13:25:33.616Z,99.90
2023-03-05T13:28:05.935Z,99.90
2023-03-05T13:30:34.845Z,99.90
2023-03-05T13:33:04.789Z,99.90
2023-03-05T13:35:33.441Z,99.90
2023-03-05T13:38:02.106Z,99.90
2023-03-05T13:40:32.209Z,99.90
2023-03-05T13:43:13.593Z,99.90
2023-03-05T13:45:44.034Z,99.90
2023-03-05T13:48:20.452Z,99.90
2023-03-05T13:50:56.682Z,99.90
2023-03-05T13:53:26.359Z,99.90
2023-03-05T13:55:57.103Z,99.90
2023-03-05T13:58:48.263Z,99.90
2023-03-05T14:01:25.365Z,99.90
2023-03-05T14:03:53.931Z,99.90
2023-03-05T14:06:23.501Z,99.90
2023-03-05T14:08:53.044Z,99.90
2023-03-05T14:11:23.106Z,98.60
2023-03-05T14:14:03.490Z,98.40
2023-03-05T14:16:33.712Z,97.20
2023-03-05T14:19:03.550Z,95.80
2023-03-05T14:21:45.837Z,95.00
2023-03-05T14:24:15.768Z,95.20
2023-03-05T14:26:52.065Z,95.80
2023-03-05T14:29:24.239Z,95.50
2023-03-05T14:31:54.631Z,95.20
2023-03-05T14:34:26.593Z,94.20
2023-03-05T14:36:57.471Z,93.90
2023-03-05T14:39:29.297Z,94.40
2023-03-05T14:42:13.151Z,94.30
2023-03-05T14:44:43.558Z,94.60
2023-03-05T14:47:11.410Z,95.40
2023-03-05T14:49:39.218Z,95.40
2023-03-05T14:52:07.101Z,95.00
2023-03-05T14:54:38.096Z,95.40
2023-03-05T14:57:07.110Z,94.20
2023-03-05T14:59:34.995Z,94.80
2023-03-05T15:02:04.138Z,94.80
2023-03-05T15:04:32.726Z,94.10
2023-03-05T15:07:00.788Z,94.30
2023-03-05T15:09:29.055Z,94.30
2023-03-05T15:11:56.904Z,93.70
2023-03-05T15:14:24.746Z,94.30
2023-03-05T15:16:52.737Z,95.00
2023-03-05T15:19:22.057Z,95.60
2023-03-05T15:21:49.931Z,96.00
2023-03-05T15:24:17.765Z,95.90
2023-03-05T15:26:45.670Z,96.00
2023-03-05T15:29:13.480Z,95.90
2023-03-05T15:31:41.541Z,96.70
2023-03-05T15:34:09.390Z,97.30
2023-03-05T15:36:38.630Z,96.80
2023-03-05T15:39:07.119Z,96.60
2023-03-05T15:41:34.987Z,96.40
2023-03-05T15:44:02.977Z,96.60
2023-03-05T15:46:30.893Z,96.70
2023-03-05T15:48:58.866Z,96.60
2023-03-05T15:51:26.691Z,97.30
2023-03-05T15:53:55.810Z,97.70
2023-03-05T15:56:23.651Z,98.40
2023-03-05T15:58:51.659Z,98.30
2023-03-05T16:01:20.842Z,98.70
2023-03-05T16:03:48.801Z,99.10
2023-03-05T16:06:20.318Z,99.30
2023-03-05T16:08:48.554Z,99.10
2023-03-05T16:11:18.773Z,99.30
2023-03-05T16:13:46.566Z,99.70
2023-03-05T16:16:15.062Z,99.60
2023-03-05T16:18:46.069Z,99.90
2023-03-05T16:21:14.760Z,99.80
2023-03-05T16:23:42.513Z,99.80
2023-03-05T16:26:10.914Z,99.70
2023-03-05T16:28:40.133Z,99.90
2023-03-05T16:31:08.067Z,99.80
2023-03-05T16:33:35.916Z,99.40
2023-03-05T16:36:20.818Z,99.50
2023-03-05T16:38:50.287Z,99.90
2023-03-05T16:41:18.848Z,99.90
2023-03-05T16:43:48.250Z,99.90
2023-03-05T16:46:17.041Z,99.90
2023-03-05T16:48:45.131Z,99.90
2023-03-05T16:51:13.845Z,99.90
2023-03-05T16:53:42.291Z,99.90
2023-03-05T16:56:10.834Z,99.90
2023-03-05T16:58:40.561Z,99.90
2023-03-05T17:01:14.555Z,99.90
2023-03-05T17:03:43.508Z,99.90
2023-03-05T17:06:16.267Z,99.90
2023-03-05T17:08:45.641Z,99.90
2023-03-05T17:11:14.013Z,99.90
2023-03-05T17:13:42.359Z,99.90
2023-03-05T17:16:13.276Z,99.90
2023-03-05T17:18:41.322Z,99.90
2023-03-05T17:21:10.364Z,99.90
2023-03-05T17:23:39.460Z,99.90
2023-03-05T17:26:08.579Z,99.90
2023-03-05T17:28:36.949Z,99.90
2023-03-05T17:31:04.881Z,99.90
2023-03-05T17:33:35.229Z,99.90
2023-03-05T17:36:03.451Z,99.90
2023-03-05T17:38:31.479Z,99.90
2023-03-05T17:40:59.395Z,99.90
2023-03-05T17:43:27.230Z,99.90
2023-03-05T17:45:59.561Z,99.90
2023-03-05T17:48:28.022Z,99.90
2023-03-05T17:50:57.210Z,99.90
2023-03-05T17:53:25.262Z,99.90
2023-03-05T17:55:53.550Z,99.90
2023-03-05T17:58:21.329Z,99.90
2023-03-05T18:00:49.140Z,99.90
2023-03-05T18:03:16.997Z,99.90
2023-03-05T18:05:45.778Z,99.90
2023-03-05T18:08:14.894Z,99.90
2023-03-05T18:10:42.814Z,99.90
2023-03-05T18:13:10.675Z,99.90
2023-03-05T18:15:41.713Z,99.90
2023-03-05T18:18:09.538Z,99.90
2023-03-05T18:20:37.994Z,99.90
2023-03-05T18:23:06.984Z,99.90
2023-03-05T18:25:36.258Z,99.90
2023-03-05T18:28:06.330Z,99.90
2023-03-05T18:30:34.459Z,99.90
2023-03-05T18:33:02.545Z,99.90
2023-03-05T18:35:30.430Z,99.90
2023-03-05T18:37:58.947Z,99.90
2023-03-05T18:40:28.821Z,99.90
2023-03-05T18:43:00.930Z,99.90
2023-03-05T18:45:29.965Z,99.90
2023-03-05T18:47:57.878Z,99.90
2023-03-05T18:50:28.035Z,99.90
2023-03-05T18:52:55.950Z,99.90
2023-03-05T18:55:26.264Z,99.90
2023-03-05T18:57:54.460Z,99.90
2023-03-05T19:00:25.985Z,99.90
2023-03-05T19:02:54.445Z,99.90
2023-03-05T19:05:22.882Z,99.90
2023-03-05T19:07:50.731Z,99.90
2023-03-05T19:10:19.084Z,99.90
2023-03-05T19:12:50.958Z,99.90
2023-03-05T19:15:18.946Z,99.90
2023-03-05T19:17:49.403Z,99.90
2023-03-05T19:20:18.812Z,99.90
2023-03-05T19:22:46.653Z,99.90
2023-03-05T19:25:14.820Z,99.90
2023-03-05T19:27:42.619Z,99.90
2023-03-05T19:30:12.728Z,99.90
2023-03-05T19:32:40.608Z,99.90
2023-03-05T19:35:14.812Z,99.90
2023-03-05T19:37:42.693Z,99.90
2023-03-05T19:40:12.068Z,99.90
2023-03-05T19:42:39.971Z,99.90
2023-03-05T19:45:09.013Z,99.90
2023-03-05T19:47:36.842Z,99.90
2023-03-05T19:50:05.390Z,99.90
2023-03-05T19:52:34.614Z,99.90
2023-03-05T19:55:02.442Z,99.90
2023-03-05T19:57:30.288Z,99.90
2023-03-05T19:59:58.157Z,99.90
2023-03-05T20:02:26.049Z,99.90
2023-03-05T20:04:57.481Z,99.90
2023-03-05T20:07:25.361Z,99.90
2023-03-05T20:09:55.537Z,99.90
2023-03-05T20:12:23.739Z,99.90
2023-03-05T20:14:51.602Z,99.90
2023-03-05T20:17:20.035Z,99.90
2023-03-05T20:19:47.873Z,99.90
2023-03-05T20:22:15.695Z,99.90
2023-03-05T20:24:43.485Z,99.90
2023-03-05T20:27:12.598Z,99.90
2023-03-05T20:29:40.418Z,99.90
2023-03-05T20:32:08.599Z,99.90
2023-03-05T20:34:36.541Z,99.90
2023-03-05T20:37:04.992Z,99.90
2023-03-05T20:39:33.140Z,99.90
2023-03-05T20:42:00.970Z,99.90
2023-03-05T20:44:30.266Z,99.90
2023-03-05T20:47:12.406Z,99.90
2023-03-05T20:49:40.253Z,99.90
2023-03-05T20:52:08.024Z,99.90
2023-03-05T20:54:36.293Z,99.90
2023-03-05T20:57:04.081Z,99.90
2023-03-05T20:59:33.186Z,99.90
2023-03-05T21:02:01.001Z,99.90
2023-03-05T21:04:28.876Z,99.90
2023-03-05T21:06:56.662Z,99.90
2023-03-05T21:09:24.456Z,99.90
2023-03-05T21:11:52.214Z,99.90
2023-03-05T21:14:19.990Z,99.90
2023-03-05T21:16:49.056Z,99.90
2023-03-05T21:19:17.351Z,99.90
2023-03-05T21:21:45.733Z,99.90
2023-03-05T21:24:13.860Z,99.90
2023-03-05T21:26:41.635Z,99.90
2023-03-05T21:29:09.417Z,99.90
2023-03-05T21:31:37.776Z,99.90
2023-03-05T21:34:06.899Z,99.90
2023-03-05T21:36:35.029Z,99.90
2023-03-05T21:39:02.810Z,99.90
2023-03-05T21:41:31.088Z,99.90
2023-03-05T21:44:03.864Z,99.90
2023-03-05T21:46:31.698Z,99.90
2023-03-05T21:48:59.451Z,99.90
2023-03-05T21:51:38.375Z,99.90
2023-03-05T21:54:06.609Z,99.90
2023-03-05T21:56:34.412Z,99.90
2023-03-05T21:59:03.064Z,99.90
2023-03-05T22:01:31.034Z,99.90
2023-03-05T22:03:58.981Z,99.90
2023-03-05T22:06:28.226Z,99.90
2023-03-05T22:08:56.016Z,99.90
2023-03-05T22:11:24.281Z,99.90
2023-03-05T22:13:52.081Z,99.90
2023-03-05T22:16:23.929Z,99.90
2023-03-05T22:18:52.140Z,99.90
2023-03-05T22:21:22.176Z,99.90
2023-03-05T22:23:52.352Z,99.90
2023-03-05T22:26:20.249Z,99.90
2023-03-05T22:28:48.027Z,99.90
2023-03-05T22:31:20.950Z,99.90
2023-03-05T22:33:48.766Z,99.90
2023-03-05T22:36:17.060Z,99.90
2023-03-05T22:38:45.234Z,99.90
2023-03-05T22:41:16.056Z,99.90
2023-03-05T22:43:44.219Z,99.90
2023-03-05T22:46:14.099Z,99.90
2023-03-05T22:48:42.070Z,99.90
2023-03-05T22:51:11.313Z,99.90
2023-03-05T22:53:39.540Z,99.90
2023-03-05T22:56:08.752Z,99.90
2023-03-05T22:58:38.180Z,99.90
2023-03-05T23:01:12.465Z,99.90
2023-03-05T23:03:40.792Z,99.90
2023-03-05T23:06:09.874Z,99.90
2023-03-05T23:08:37.655Z,99.90
2023-03-05T23:11:09.483Z,99.90
2023-03-05T23:13:38.842Z,99.90
2023-03-05T23:16:07.258Z,99.90
2023-03-05T23:18:35.232Z,99.90
2023-03-05T23:21:03.080Z,99.90
2023-03-05T23:23:30.869Z,99.90
2023-03-05T23:25:58.695Z,99.90
2023-03-05T23:28:26.470Z,99.90
2023-03-05T23:30:55.624Z,99.90
2023-03-05T23:33:25.047Z,99.90
2023-03-05T23:35:55.588Z,99.90
2023-03-05T23:38:24.270Z,99.90
2023-03-05T23:40:54.123Z,99.90
2023-03-05T23:43:24.532Z,99.90
2023-03-05T23:45:54.920Z,99.90
2023-03-05T23:48:24.807Z,99.90
2023-03-05T23:50:52.690Z,99.90
2023-03-05T23:53:22.485Z,99.90
2023-03-05T23:55:50.927Z,99.90
2023-03-05T23:58:20.268Z,99.90
